Dawn, Texas
Current Conditions -  °F | °C
As of 11:15 PM on Wednesday 22 Oct 2014 (Local Time) from KHRX Reporting Station
Overcast Overcast  
Wind Chill: 63°   Ceiling: 800
Heat Index: 63°   Visibility: 7mi
Dew Point: 61°   Wind: 14mph
Humidity: 94%   Direction: 140°SE
Pressure: 30.13"   Gusts: 23mph
Location:  34.91°N, 102.2°W
Report Text: KHRX 230415Z AUTO 14012G20KT 7SM OVC008 17/16 A3013 RMK AO2 T01710161
Loading
Personal Weather Stations






























Interactive Weather Map
Tropical Storm Tracking
New forecast layout! Learn more

10-Day Weather Forecast

Advertisements
Track Severe Weather on mobile